x

Buzzards Bay, Ma (buzm3) Weather Station

5:00pm - Thu 20th Jul 2017 All times are EDT. -4 hours from GMT.

  • Wind
    18mph, 20mph gusts
  • 空気 Temp 76°f
  • Sea Pressure 1011.6mb
  • Buzzards Bay, Ma
  • Buzzards Bay, Ma

More Historic Weather Station data

Upgrade to MSW Pro to gain access to the past 30 days of data for over 8000 Wavebouys and Weather Stations around the globe.

Join Pro

Comparision Forecast

View Surf forecast
   
Thu 07/20 5:00pm 18 20 mph 1011.6mb 76f
4:00pm 15 16 mph 1012.2mb 74f
3:00pm 16 16 mph 1012.6mb 75f
2:00pm 15 15 mph 1013.2mb 75f
1:00pm 14 15 mph 1014mb 74f
12:00pm 13 13 mph 1014.5mb 76f
11:00am 13 13 mph 1014.8mb 75f
10:00am 11 11 mph 1015.1mb 73f
9:00am 7 8 mph 1015mb 73f
8:00am 6 6 mph 1015.1mb 74f
7:00am 8 8 mph 1014.7mb 73f
6:00am 10 10 mph 1014.3mb 70f
5:00am 8 8 mph 1014mb 70f
4:00am 8 8 mph 1014.3mb 70f
3:00am 13 13 mph 1014.4mb 71f
2:00am 14 15 mph 1014.8mb 71f
1:00am 16 17 mph 1015.1mb 72f
12:00am 14 16 mph 1015.2mb 71f
Wed 07/19 11:00pm 17 18 mph 1015.2mb 72f
10:00pm 20 22 mph 1015.3mb 73f
9:00pm 18 21 mph 1015mb 73f
8:00pm 18 20 mph 1014.7mb 73f
7:00pm 18 20 mph 1014.5mb 74f
6:00pm 21 22 mph 1014.5mb 74f
5:00pm 17 18 mph 1014.8mb 74f
4:00pm 21 22 mph 1015.1mb 74f
3:00pm 20 21 mph 1015.4mb 73f
2:00pm 16 17 mph 1016mb 73f
1:00pm 18 20 mph 1016.7mb 73f
12:00pm 17 17 mph 1017.2mb 73f
11:00am 17 17 mph 1017.5mb 73f
10:00am 15 16 mph 1017.7mb 72f
9:00am 13 14 mph 1017.9mb 72f
8:00am 13 14 mph 1018.1mb 72f
7:00am 14 14 mph 1017.9mb 72f
6:00am 13 14 mph 1017.9mb 72f
5:00am 16 17 mph 1017.8mb 73f
4:00am 14 14 mph 1018mb 72f
3:00am 9 10 mph 1018.3mb 72f
2:00am 14 14 mph 1018.3mb 72f
1:00am 11 13 mph 1018.7mb 73f
12:00am 9 10 mph 1019.1mb 73f
Tue 07/18 11:00pm 14 14 mph 1019.3mb 73f
10:00pm 15 15 mph 1018.9mb 73f
9:00pm 13 14 mph 1018.8mb 73f
8:00pm 13 13 mph 1018.7mb 73f
7:00pm 6 6 mph 1019mb 73f
6:00pm 15 15 mph 1018.3mb 73f
5:00pm 11 11 mph 1018.2mb 73f
4:00pm 11 13 mph 1018.6mb 73f
3:00pm 5 5 mph 1019.3mb 72f
2:00pm 5 6 mph 1019.4mb 71f
1:00pm 2 3 mph 1020.1mb 70f
12:00pm 2 3 mph 1020.5mb 70f
11:00am 7 7 mph 1020.5mb 70f
10:00am 5 5 mph 1020.7mb 69f
9:00am 3 3 mph 1020.8mb 70f
8:00am 1 1 mph 1020.7mb 69f
7:00am 5 6 mph 1020mb 70f
6:00am 6 6 mph 1019.9mb 69f
5:00am 8 9 mph 1019.8mb 69f
4:00am 9 9 mph 1019.8mb 69f
3:00am 3 5 mph 1019.7mb 69f
2:00am 2 3 mph 1019.8mb 69f
1:00am 9 10 mph 1019.6mb 70f
12:00am 10 11 mph 1020.2mb 69f
Mon 07/17 11:00pm 10 10 mph 1020.1mb 70f
10:00pm 14 14 mph 1019.8mb 70f
9:00pm 10 11 mph 1019.8mb 70f
8:00pm 10 10 mph 1019.6mb 71f
7:00pm 10 10 mph 1019.7mb 71f
6:00pm 8 9 mph 1019.4mb 71f
5:00pm 11 11 mph 1019mb 71f
4:00pm 8 8 mph 1018.7mb 71f
3:00pm 8 9 mph 1018.8mb 70f
2:00pm 7 7 mph 1018.9mb 71f
1:00pm 6 7 mph 1019.3mb 70f
12:00pm 9 9 mph 1019.7mb 69f
11:00am 11 11 mph 1019.8mb 68f
10:00am 8 8 mph 1019.6mb 70f
9:00am 10 10 mph 1019.3mb 70f
8:00am 11 11 mph 1018.9mb 70f
7:00am 11 11 mph 1018.6mb 70f
6:00am 13 13 mph 1017.9mb 69f
5:00am 11 11 mph 1017.4mb 69f
4:00am 8 8 mph 1017.2mb 70f
3:00am 8 9 mph 1017mb 70f
2:00am 6 7 mph 1017.1mb 70f
1:00am 8 8 mph 1017.1mb 70f
12:00am 9 9 mph 1017.1mb 70f
Sun 07/16 11:00pm 11 11 mph 1016.8mb 71f